Time;durP1;ratioP1;P1;durP2;ratioP2;P2;SDS_P1;SDS_P2;PMS_P1;PMS_P2;Temp;Humidity;BMP_temperature;BMP_pressure;BME280_temperature;BME280_humidity;BME280_pressure;Samples;Min_cycle;Max_cycle;Signal;HPM_P1;HPM_P2
2023/10/22 00:00:09;;;;;;;6.78;1.38;;;13.00;99.90;;;;;;4978731;28;20985;-75
2023/10/22 00:02:36;;;;;;;9.27;1.75;;;13.00;99.90;;;;;;4996344;28;20042;-76
2023/10/22 00:05:06;;;;;;;8.90;1.50;;;13.00;99.90;;;;;;4989686;28;20038;-77
2023/10/22 00:07:32;;;;;;;7.93;1.20;;;13.00;99.90;;;;;;5005368;28;20160;-75
2023/10/22 00:09:58;;;;;;;6.78;1.13;;;13.00;99.90;;;;;;4988602;28;20050;-76
2023/10/22 00:12:24;;;;;;;7.90;1.40;;;13.00;99.90;;;;;;4990421;28;20038;-75
2023/10/22 00:14:51;;;;;;;9.82;1.50;;;13.00;99.90;;;;;;4988598;28;20048;-76
2023/10/22 00:17:17;;;;;;;8.52;1.23;;;13.00;99.90;;;;;;4979686;28;20295;-75
2023/10/22 00:19:43;;;;;;;5.68;1.25;;;13.00;99.90;;;;;;4977239;28;20046;-76
2023/10/22 00:22:12;;;;;;;7.20;1.17;;;13.00;99.90;;;;;;4977339;28;20060;-75
2023/10/22 00:24:38;;;;;;;7.40;1.40;;;13.00;99.90;;;;;;5006905;28;20057;-76
2023/10/22 00:27:04;;;;;;;10.60;1.30;;;13.10;99.90;;;;;;4998410;28;20036;-74
2023/10/22 00:29:30;;;;;;;7.22;1.55;;;13.00;99.90;;;;;;4988708;28;20129;-75
2023/10/22 00:31:56;;;;;;;12.38;1.55;;;13.00;99.90;;;;;;4990946;28;20574;-76
2023/10/22 00:34:22;;;;;;;9.82;1.75;;;13.00;99.90;;;;;;4994286;28;20061;-75
2023/10/22 00:36:47;;;;;;;7.35;1.63;;;13.10;99.90;;;;;;4990084;28;20052;-77
2023/10/22 00:39:14;;;;;;;8.65;1.30;;;13.10;99.90;;;;;;4970279;28;20038;-76
2023/10/22 00:41:39;;;;;;;8.38;1.30;;;13.10;99.90;;;;;;4994295;28;20473;-75
2023/10/22 00:44:05;;;;;;;6.63;1.33;;;13.10;99.90;;;;;;4994492;28;20053;-76
2023/10/22 00:46:31;;;;;;;9.93;2.28;;;13.00;99.90;;;;;;4974302;28;20045;-76
2023/10/22 00:48:57;;;;;;;5.80;0.93;;;13.10;99.90;;;;;;4968165;28;20085;-75
2023/10/22 00:51:23;;;;;;;6.32;1.08;;;13.10;99.90;;;;;;4969975;28;20073;-76
2023/10/22 00:53:49;;;;;;;7.65;1.58;;;13.10;99.90;;;;;;4988383;28;20053;-75
2023/10/22 00:56:16;;;;;;;7.35;1.17;;;13.10;99.90;;;;;;4972138;28;20048;-75
2023/10/22 00:58:43;;;;;;;6.38;1.50;;;13.10;99.90;;;;;;4971976;28;20084;-75
2023/10/22 01:01:12;;;;;;;4.47;1.02;;;13.10;99.90;;;;;;4971232;28;20437;-75
2023/10/22 01:03:38;;;;;;;8.25;1.30;;;13.10;99.90;;;;;;4960674;28;20046;-75
2023/10/22 01:06:06;;;;;;;7.97;1.23;;;13.10;99.90;;;;;;4973875;28;20042;-76
2023/10/22 01:08:34;;;;;;;8.77;1.35;;;13.10;99.90;;;;;;4972661;28;20073;-76
2023/10/22 01:11:07;;;;;;;4.22;1.00;;;13.10;99.90;;;;;;4968639;28;20050;-76
2023/10/22 01:13:33;;;;;;;7.20;1.15;;;13.00;99.90;;;;;;4984836;28;20124;-75
2023/10/22 01:15:59;;;;;;;7.40;1.30;;;13.10;99.90;;;;;;4978273;28;20581;-75
2023/10/22 01:18:25;;;;;;;10.35;1.30;;;13.00;99.90;;;;;;4981947;28;20041;-76
2023/10/22 01:20:51;;;;;;;7.03;1.10;;;13.00;99.90;;;;;;4988956;28;20068;-75
2023/10/22 01:23:17;;;;;;;5.35;0.80;;;13.00;99.90;;;;;;4969923;28;20056;-77
2023/10/22 01:25:44;;;;;;;6.65;0.90;;;13.00;99.90;;;;;;4972033;28;20042;-76
2023/10/22 01:28:10;;;;;;;7.95;1.17;;;13.00;99.90;;;;;;5001944;28;20418;-76
2023/10/22 01:30:35;;;;;;;5.80;1.05;;;13.00;99.90;;;;;;4982870;28;20053;-76
2023/10/22 01:33:01;;;;;;;5.68;1.05;;;13.00;99.90;;;;;;4975253;28;20038;-75
2023/10/22 01:35:27;;;;;;;4.22;0.93;;;12.90;99.90;;;;;;5005546;28;20551;-75
2023/10/22 01:37:53;;;;;;;3.20;1.00;;;12.90;99.90;;;;;;4983361;28;20088;-76
2023/10/22 01:40:19;;;;;;;4.00;0.90;;;13.00;99.90;;;;;;4974608;28;20164;-76
2023/10/22 01:42:45;;;;;;;5.18;1.23;;;12.80;99.90;;;;;;4982247;28;20536;-75
2023/10/22 01:45:11;;;;;;;9.43;1.20;;;12.80;99.90;;;;;;5004606;28;20096;-75
2023/10/22 01:47:37;;;;;;;4.28;0.90;;;12.80;99.90;;;;;;4999878;28;20029;-75
2023/10/22 01:50:07;;;;;;;9.35;1.08;;;13.00;99.90;;;;;;4990658;28;20211;-75
2023/10/22 01:52:33;;;;;;;4.63;1.02;;;12.70;99.90;;;;;;4973727;28;20050;-76
2023/10/22 01:54:59;;;;;;;7.72;1.00;;;12.70;99.90;;;;;;4991543;28;20049;-75
2023/10/22 01:57:24;;;;;;;6.97;1.08;;;12.70;99.90;;;;;;4988851;28;20180;-75
2023/10/22 01:59:51;;;;;;;5.28;0.98;;;12.70;99.90;;;;;;4972183;28;20133;-76
2023/10/22 02:02:17;;;;;;;4.65;0.85;;;12.60;99.90;;;;;;4976882;28;20473;-74
2023/10/22 02:04:43;;;;;;;5.03;0.90;;;12.50;99.90;;;;;;4990048;28;20277;-76
2023/10/22 02:07:09;;;;;;;3.03;0.80;;;12.50;99.90;;;;;;4984959;28;20061;-75
2023/10/22 02:09:34;;;;;;;5.22;1.40;;;12.50;99.90;;;;;;4987090;28;20041;-75
2023/10/22 02:12:00;;;;;;;6.80;1.20;;;12.40;99.90;;;;;;4992859;28;20046;-76
2023/10/22 02:14:26;;;;;;;8.05;1.30;;;12.40;99.90;;;;;;4976538;28;20057;-75
2023/10/22 02:16:52;;;;;;;9.25;1.20;;;12.40;99.90;;;;;;4974701;28;20045;-75
2023/10/22 02:19:18;;;;;;;7.13;1.10;;;12.40;99.90;;;;;;4991404;28;20056;-77
2023/10/22 02:21:45;;;;;;;4.28;0.73;;;12.30;99.90;;;;;;4984063;28;20091;-76
2023/10/22 02:24:10;;;;;;;6.15;1.30;;;12.30;99.90;;;;;;4972161;28;20589;-78
2023/10/22 02:26:36;;;;;;;4.95;0.90;;;12.30;99.90;;;;;;4978486;28;20101;-75
2023/10/22 02:29:03;;;;;;;5.60;1.58;;;12.20;99.90;;;;;;4982048;28;20042;-75
2023/10/22 02:31:28;;;;;;;7.32;1.45;;;12.20;99.90;;;;;;4983660;28;20054;-75
2023/10/22 02:34:08;;;;;;;7.63;1.27;;;12.30;99.90;;;;;;5013017;28;20376;-75
2023/10/22 02:36:34;;;;;;;10.13;1.40;;;12.20;99.90;;;;;;4996377;28;20049;-76
2023/10/22 02:39:00;;;;;;;8.30;0.95;;;12.20;99.90;;;;;;4991866;28;20561;-75
2023/10/22 02:41:28;;;;;;;5.32;1.13;;;12.20;99.90;;;;;;4998175;28;20541;-74
2023/10/22 02:43:55;;;;;;;6.65;1.42;;;12.10;99.90;;;;;;4996185;28;20052;-75
2023/10/22 02:46:21;;;;;;;6.60;1.30;;;12.10;99.90;;;;;;4980703;28;20041;-74
2023/10/22 02:48:47;;;;;;;6.38;1.45;;;12.10;99.90;;;;;;4981273;28;20360;-75
2023/10/22 02:51:12;;;;;;;5.30;1.15;;;12.10;99.90;;;;;;4983078;28;20058;-75
2023/10/22 02:53:38;;;;;;;6.05;1.67;;;12.00;99.90;;;;;;4997178;28;20045;-75
2023/10/22 02:56:04;;;;;;;5.03;1.10;;;12.10;99.90;;;;;;4989206;28;20450;-75
2023/10/22 02:58:30;;;;;;;3.55;1.10;;;12.10;99.90;;;;;;4990862;28;20046;-75
2023/10/22 03:01:04;;;;;;;4.03;1.40;;;12.00;99.90;;;;;;4970057;28;20050;-76
2023/10/22 03:03:31;;;;;;;6.22;0.90;;;12.00;99.90;;;;;;4999137;28;20052;-75
2023/10/22 03:06:00;;;;;;;5.95;1.20;;;12.00;99.90;;;;;;4995793;28;20529;-75
2023/10/22 03:08:26;;;;;;;7.35;1.42;;;12.00;99.90;;;;;;4985784;28;20049;-75
2023/10/22 03:10:52;;;;;;;5.72;1.20;;;12.00;99.90;;;;;;4995702;28;20064;-75
2023/10/22 03:13:17;;;;;;;7.78;1.27;;;12.00;99.90;;;;;;5003333;28;20048;-75
2023/10/22 03:15:43;;;;;;;4.75;1.25;;;12.00;99.90;;;;;;5002672;28;20042;-75
2023/10/22 03:18:09;;;;;;;6.90;1.45;;;12.00;99.90;;;;;;5001209;28;20085;-75
2023/10/22 03:20:35;;;;;;;3.70;1.13;;;12.00;99.90;;;;;;5002062;28;20406;-76
2023/10/22 03:23:03;;;;;;;3.05;1.75;;;12.00;99.90;;;;;;4988583;28;20088;-76
2023/10/22 03:25:29;;;;;;;4.00;1.20;;;12.00;99.90;;;;;;4995848;28;20060;-75
2023/10/22 03:27:55;;;;;;;5.40;1.58;;;12.00;99.90;;;;;;4978628;28;20099;-75
2023/10/22 03:30:24;;;;;;;5.50;1.50;;;12.00;99.90;;;;;;5000618;28;20889;-75
2023/10/22 03:32:50;;;;;;;5.35;1.60;;;12.00;99.90;;;;;;4983109;28;20494;-75
2023/10/22 03:35:16;;;;;;;5.43;1.48;;;12.00;99.90;;;;;;4984965;28;20128;-75
2023/10/22 03:37:42;;;;;;;6.85;1.42;;;12.00;99.90;;;;;;4976581;28;20125;-75
2023/10/22 03:40:09;;;;;;;5.07;1.80;;;12.00;99.90;;;;;;4986871;28;20054;-77
2023/10/22 03:42:35;;;;;;;7.25;1.70;;;12.00;99.90;;;;;;4974589;28;20365;-75
2023/10/22 03:45:01;;;;;;;2.50;1.20;;;12.00;99.90;;;;;;4990791;28;20046;-76
2023/10/22 03:47:27;;;;;;;5.28;1.58;;;12.00;99.90;;;;;;4973697;28;20048;-75
2023/10/22 03:49:52;;;;;;;4.85;1.25;;;12.00;99.90;;;;;;4998179;28;20038;-75
2023/10/22 03:52:18;;;;;;;8.20;1.60;;;12.00;99.90;;;;;;4998105;28;20050;-75
2023/10/22 03:54:44;;;;;;;7.13;1.50;;;12.00;99.90;;;;;;4987960;28;20041;-75
2023/10/22 03:57:09;;;;;;;4.63;1.50;;;12.00;99.90;;;;;;4991508;28;20451;-76
2023/10/22 03:59:35;;;;;;;3.90;1.20;;;12.00;99.90;;;;;;4972019;28;20038;-76
2023/10/22 04:02:01;;;;;;;3.72;1.10;;;12.00;99.90;;;;;;4975040;28;20050;-76
2023/10/22 04:04:27;;;;;;;5.38;1.05;;;12.00;99.90;;;;;;4992423;28;20168;-76
2023/10/22 04:06:52;;;;;;;3.28;1.20;;;12.00;99.90;;;;;;4974902;28;20446;-76
2023/10/22 04:09:18;;;;;;;2.55;1.00;;;12.10;99.90;;;;;;4981994;28;20042;-76
2023/10/22 04:11:44;;;;;;;5.50;1.27;;;12.00;99.90;;;;;;4979361;28;20430;-75
2023/10/22 04:14:09;;;;;;;2.70;1.00;;;12.00;99.90;;;;;;4991165;28;20128;-75
2023/10/22 04:16:35;;;;;;;4.30;1.00;;;12.00;99.90;;;;;;4992553;28;20121;-75
2023/10/22 04:19:01;;;;;;;4.65;1.30;;;12.00;99.90;;;;;;4970150;28;20132;-76
2023/10/22 04:21:28;;;;;;;5.35;1.20;;;12.00;99.90;;;;;;4972132;28;20507;-75
2023/10/22 04:23:53;;;;;;;1.85;0.98;;;12.00;99.90;;;;;;4969483;28;20104;-76
2023/10/22 04:26:19;;;;;;;5.97;1.20;;;12.00;99.90;;;;;;4989947;28;21936;-75
2023/10/22 04:28:47;;;;;;;4.20;0.90;;;12.00;99.90;;;;;;4988394;28;20058;-75
2023/10/22 04:31:13;;;;;;;3.35;1.00;;;12.00;99.90;;;;;;4988998;28;20054;-74
2023/10/22 04:33:38;;;;;;;2.92;1.00;;;12.00;99.90;;;;;;4991244;28;20108;-75
2023/10/22 04:36:04;;;;;;;3.53;0.90;;;12.00;99.90;;;;;;4981795;28;20253;-75
2023/10/22 04:38:31;;;;;;;3.72;1.02;;;12.00;99.90;;;;;;5006835;28;20046;-76
2023/10/22 04:40:57;;;;;;;2.60;0.95;;;12.00;99.90;;;;;;5000715;28;20386;-76
2023/10/22 04:43:23;;;;;;;4.25;1.10;;;12.20;99.90;;;;;;4995767;28;20046;-76
2023/10/22 04:45:50;;;;;;;2.45;0.90;;;12.00;99.90;;;;;;4973892;28;20050;-76
2023/10/22 04:48:16;;;;;;;3.95;1.10;;;12.00;99.90;;;;;;5008500;28;20108;-75
2023/10/22 04:50:44;;;;;;;3.55;1.10;;;12.00;99.90;;;;;;5005892;28;20048;-76
2023/10/22 04:53:10;;;;;;;2.08;0.90;;;12.00;99.90;;;;;;4981186;28;20042;-76
2023/10/22 04:55:36;;;;;;;1.90;1.17;;;12.00;99.90;;;;;;5002626;28;20081;-76
2023/10/22 04:58:02;;;;;;;3.63;1.27;;;12.00;99.90;;;;;;4992355;28;20092;-75
2023/10/22 05:00:28;;;;;;;3.80;1.33;;;12.00;99.90;;;;;;4976991;28;20133;-76
2023/10/22 05:02:54;;;;;;;4.03;1.58;;;12.00;99.90;;;;;;4993976;28;20578;-76
2023/10/22 05:05:21;;;;;;;4.53;1.70;;;12.00;99.90;;;;;;4993043;28;20125;-76
2023/10/22 05:07:49;;;;;;;4.65;2.00;;;12.10;99.90;;;;;;5005634;28;20127;-76
2023/10/22 05:10:15;;;;;;;5.45;2.47;;;12.10;99.90;;;;;;4988590;28;20152;-76
2023/10/22 05:12:41;;;;;;;5.93;2.30;;;12.10;99.90;;;;;;4991609;28;20061;-76
2023/10/22 05:15:08;;;;;;;5.70;2.85;;;12.10;99.90;;;;;;4982660;28;20045;-76
2023/10/22 05:17:34;;;;;;;5.80;3.05;;;12.10;99.90;;;;;;4994601;28;20459;-77
2023/10/22 05:19:59;;;;;;;5.30;2.92;;;12.10;99.90;;;;;;4991812;28;20053;-76
2023/10/22 05:22:25;;;;;;;6.63;3.50;;;12.20;99.90;;;;;;4971729;28;20049;-76
2023/10/22 05:24:51;;;;;;;10.02;4.03;;;12.20;99.90;;;;;;4995465;28;20518;-76
2023/10/22 05:27:17;;;;;;;9.48;4.03;;;12.20;99.90;;;;;;4997340;28;20033;-77
2023/10/22 05:29:45;;;;;;;7.43;4.10;;;12.20;99.90;;;;;;4997238;28;20034;-76
2023/10/22 05:32:14;;;;;;;8.48;3.90;;;12.20;99.90;;;;;;4996742;28;20085;-76
2023/10/22 05:34:41;;;;;;;7.25;4.47;;;12.20;99.90;;;;;;4996040;28;20851;-76
2023/10/22 05:37:07;;;;;;;7.28;3.88;;;12.20;99.90;;;;;;4992391;28;20065;-76
2023/10/22 05:39:33;;;;;;;5.93;3.90;;;12.20;99.90;;;;;;5004812;28;20065;-77
2023/10/22 05:41:59;;;;;;;7.72;4.20;;;12.30;99.90;;;;;;4989420;28;20054;-77
2023/10/22 05:44:24;;;;;;;7.82;4.22;;;12.30;99.90;;;;;;4990537;28;20207;-77
2023/10/22 05:46:50;;;;;;;8.57;4.70;;;12.30;99.90;;;;;;4987463;28;20050;-76
2023/10/22 05:49:17;;;;;;;7.68;3.72;;;12.30;99.90;;;;;;4990918;28;20470;-77
2023/10/22 05:51:42;;;;;;;8.05;4.00;;;12.30;99.90;;;;;;5000529;28;20112;-77
2023/10/22 05:54:08;;;;;;;8.80;3.72;;;12.30;99.90;;;;;;4984750;28;20382;-76
2023/10/22 05:56:34;;;;;;;6.05;3.38;;;12.30;99.90;;;;;;4983652;28;20499;-76
2023/10/22 05:59:04;;;;;;;6.18;3.63;;;12.40;99.90;;;;;;4993285;28;20049;-76
2023/10/22 06:01:30;;;;;;;4.05;2.17;;;12.40;99.90;;;;;;4981634;28;20097;-77
2023/10/22 06:03:55;;;;;;;3.20;1.20;;;12.40;99.90;;;;;;4984865;28;20077;-76
2023/10/22 06:06:22;;;;;;;3.17;1.02;;;12.40;99.90;;;;;;4985559;28;20073;-79
2023/10/22 06:08:48;;;;;;;3.03;1.00;;;13.00;99.90;;;;;;4995104;28;20046;-79
2023/10/22 06:11:14;;;;;;;2.72;0.95;;;12.40;99.90;;;;;;4985209;28;20038;-78
2023/10/22 06:13:40;;;;;;;8.38;1.30;;;12.40;99.90;;;;;;4973645;28;20771;-77
2023/10/22 06:16:07;;;;;;;4.68;1.20;;;12.30;99.90;;;;;;4998091;28;20049;-78
2023/10/22 06:18:33;;;;;;;3.40;1.27;;;12.30;99.90;;;;;;4989945;28;20081;-79
2023/10/22 06:20:59;;;;;;;6.65;1.65;;;12.20;99.90;;;;;;4983767;28;20057;-79
2023/10/22 06:23:25;;;;;;;5.20;1.40;;;12.20;99.90;;;;;;4988121;28;20069;-79
2023/10/22 06:25:53;;;;;;;4.30;1.23;;;12.20;99.90;;;;;;4962701;28;20050;-78
2023/10/22 06:28:19;;;;;;;5.18;1.40;;;12.20;99.90;;;;;;4979985;28;20042;-79
2023/10/22 06:30:45;;;;;;;7.85;1.40;;;12.20;99.90;;;;;;4980079;28;20306;-79
2023/10/22 06:33:10;;;;;;;5.95;1.40;;;12.10;99.90;;;;;;4984062;28;20049;-79
2023/10/22 06:35:36;;;;;;;3.35;0.80;;;12.10;99.90;;;;;;4988810;28;20849;-79
2023/10/22 06:38:02;;;;;;;4.57;1.05;;;12.50;99.90;;;;;;5004337;28;20064;-79
2023/10/22 06:40:27;;;;;;;6.50;1.33;;;12.10;99.90;;;;;;4983400;28;20053;-79
2023/10/22 06:42:53;;;;;;;6.85;1.15;;;12.10;99.90;;;;;;4968692;28;20056;-79
2023/10/22 06:45:19;;;;;;;6.47;1.35;;;12.00;99.90;;;;;;4987246;28;20530;-80
2023/10/22 06:47:46;;;;;;;11.82;1.60;;;12.00;99.90;;;;;;4967840;28;20042;-82
2023/10/22 06:50:13;;;;;;;5.70;1.35;;;12.00;99.90;;;;;;4989646;28;20053;-80
2023/10/22 06:52:39;;;;;;;5.68;1.35;;;12.00;99.90;;;;;;4990213;28;21222;-81
2023/10/22 06:55:05;;;;;;;5.28;1.42;;;12.00;99.90;;;;;;4975951;28;20046;-83
2023/10/22 06:57:31;;;;;;;9.77;1.40;;;11.90;99.90;;;;;;4986987;28;20052;-82
2023/10/22 06:59:58;;;;;;;10.55;1.75;;;11.90;99.90;;;;;;4990863;28;20038;-84
2023/10/22 07:02:26;;;;;;;18.05;1.83;;;11.90;99.90;;;;;;4970341;28;20051;-82
2023/10/22 07:04:53;;;;;;;6.00;1.92;;;11.90;99.90;;;;;;4963814;28;20053;-82
2023/10/22 07:07:19;;;;;;;7.32;1.55;;;11.90;99.90;;;;;;4972038;28;20429;-83
2023/10/22 07:09:46;;;;;;;9.75;1.50;;;12.00;99.90;;;;;;4980448;28;20450;-83
2023/10/22 07:12:12;;;;;;;9.75;1.90;;;11.90;99.90;;;;;;4966296;28;20053;-81
2023/10/22 07:14:38;;;;;;;7.10;1.60;;;11.90;99.90;;;;;;4978424;28;20056;-81
2023/10/22 07:17:04;;;;;;;10.95;1.63;;;11.90;99.90;;;;;;4984178;28;20034;-79
2023/10/22 07:19:30;;;;;;;8.32;1.52;;;11.90;99.90;;;;;;4979609;28;20459;-81
2023/10/22 07:21:56;;;;;;;7.47;1.40;;;11.90;99.90;;;;;;4962996;28;20407;-80
2023/10/22 07:24:22;;;;;;;7.30;1.50;;;11.90;99.90;;;;;;4955321;28;20053;-80
2023/10/22 07:26:48;;;;;;;5.85;1.38;;;11.90;99.90;;;;;;4970872;28;20080;-80
2023/10/22 07:29:14;;;;;;;8.68;1.45;;;11.90;99.90;;;;;;4971027;28;20470;-77
2023/10/22 07:31:39;;;;;;;7.10;1.67;;;11.70;99.90;;;;;;4970835;28;20331;-79
2023/10/22 07:34:06;;;;;;;7.15;1.75;;;11.80;99.90;;;;;;4957212;28;20046;-81
2023/10/22 07:36:32;;;;;;;5.68;1.48;;;11.90;99.90;;;;;;4977851;28;20073;-80
2023/10/22 07:38:58;;;;;;;9.60;1.60;;;11.90;99.90;;;;;;4952832;28;20177;-80
2023/10/22 07:41:24;;;;;;;6.15;1.48;;;11.90;99.90;;;;;;4968892;28;20088;-79
2023/10/22 07:43:53;;;;;;;7.60;1.50;;;11.90;99.90;;;;;;4955246;28;20139;-79
2023/10/22 07:46:19;;;;;;;7.55;1.70;;;11.90;99.90;;;;;;4969243;28;20042;-79
2023/10/22 07:48:45;;;;;;;7.43;1.98;;;11.90;99.90;;;;;;4968805;28;20041;-80
2023/10/22 07:51:13;;;;;;;8.55;2.08;;;11.90;99.90;;;;;;4949552;28;20053;-79
2023/10/22 07:53:39;;;;;;;13.07;2.40;;;11.90;99.90;;;;;;4964218;28;20133;-80
2023/10/22 07:56:11;;;;;;;10.07;2.90;;;11.90;99.90;;;;;;4950750;28;20054;-80
2023/10/22 07:58:40;;;;;;;8.68;2.17;;;11.90;99.90;;;;;;4958046;28;20478;-79
2023/10/22 08:01:07;;;;;;;7.57;1.90;;;11.90;99.90;;;;;;4955761;28;20049;-79
2023/10/22 08:03:33;;;;;;;9.02;2.38;;;11.90;99.90;;;;;;4966502;28;20052;-81
2023/10/22 08:06:02;;;;;;;8.63;2.00;;;11.90;99.90;;;;;;4949143;28;20237;-80
2023/10/22 08:08:28;;;;;;;6.10;2.10;;;12.00;99.90;;;;;;4968330;28;20057;-80
2023/10/22 08:10:58;;;;;;;14.15;2.05;;;11.80;99.90;;;;;;4984088;28;20873;-81
2023/10/22 08:13:24;;;;;;;11.15;2.05;;;11.80;99.90;;;;;;4965077;28;20840;-81
2023/10/22 08:15:53;;;;;;;9.80;2.90;;;11.90;99.90;;;;;;4949102;28;20137;-81
2023/10/22 08:18:20;;;;;;;8.18;2.67;;;11.90;99.90;;;;;;4946344;28;20056;-80
2023/10/22 08:20:47;;;;;;;11.05;1.80;;;11.90;99.90;;;;;;4947296;28;20050;-81
2023/10/22 08:23:13;;;;;;;9.75;2.15;;;11.90;99.90;;;;;;4965770;28;20038;-80
2023/10/22 08:25:39;;;;;;;12.18;2.47;;;11.90;99.90;;;;;;4972849;28;20111;-80
2023/10/22 08:28:04;;;;;;;11.10;1.85;;;11.90;99.90;;;;;;4974822;28;20056;-81
2023/10/22 08:30:30;;;;;;;7.75;1.92;;;11.90;99.90;;;;;;4955268;28;20052;-79
2023/10/22 08:32:56;;;;;;;9.00;2.05;;;11.90;99.90;;;;;;4972204;28;20054;-78
2023/10/22 08:35:23;;;;;;;11.30;1.77;;;11.90;99.90;;;;;;4972949;28;20111;-79
2023/10/22 08:37:49;;;;;;;8.43;1.63;;;11.90;99.90;;;;;;4951857;28;21849;-79
2023/10/22 08:40:14;;;;;;;6.13;1.65;;;12.20;99.90;;;;;;4972039;28;20176;-80
2023/10/22 08:42:40;;;;;;;8.13;1.65;;;12.00;99.90;;;;;;4969042;28;20038;-79
2023/10/22 08:45:10;;;;;;;7.97;1.70;;;12.00;99.90;;;;;;4967215;28;20046;-78
2023/10/22 08:47:36;;;;;;;7.60;1.65;;;12.00;99.90;;;;;;4970224;28;20127;-81
2023/10/22 08:50:02;;;;;;;10.70;1.75;;;12.00;99.90;;;;;;4960967;28;20046;-78
2023/10/22 08:52:29;;;;;;;6.90;1.45;;;12.00;99.90;;;;;;4972585;28;20049;-78
2023/10/22 08:54:55;;;;;;;6.63;1.52;;;12.00;99.90;;;;;;4967852;28;20077;-78
2023/10/22 08:57:22;;;;;;;8.65;1.70;;;12.00;99.90;;;;;;4971428;28;20054;-78
2023/10/22 08:59:48;;;;;;;8.57;1.60;;;12.10;99.90;;;;;;4962544;28;20042;-78
2023/10/22 09:02:16;;;;;;;9.40;1.60;;;12.00;99.90;;;;;;4964680;28;20073;-79
2023/10/22 09:04:42;;;;;;;11.02;1.42;;;12.10;99.90;;;;;;4959256;28;20047;-79
2023/10/22 09:07:08;;;;;;;9.35;1.50;;;12.10;99.90;;;;;;4980302;28;20140;-80
2023/10/22 09:09:39;;;;;;;7.60;1.27;;;12.10;99.90;;;;;;4982622;28;20353;-80
2023/10/22 09:12:08;;;;;;;5.65;1.30;;;12.10;99.90;;;;;;4983357;28;20477;-78
2023/10/22 09:14:35;;;;;;;8.38;1.63;;;12.10;99.90;;;;;;4978744;28;20176;-77
2023/10/22 09:17:18;;;;;;;4.03;1.08;;;12.20;99.90;;;;;;4979171;28;20054;-78
2023/10/22 09:19:47;;;;;;;10.82;1.27;;;12.10;99.90;;;;;;4978116;28;20046;-79
2023/10/22 09:22:26;;;;;;;4.03;1.10;;;12.10;99.90;;;;;;4982229;28;20041;-78
2023/10/22 09:24:56;;;;;;;7.88;1.10;;;12.10;99.90;;;;;;4968659;28;20506;-78
2023/10/22 09:27:27;;;;;;;7.32;1.20;;;12.20;99.90;;;;;;4969959;28;20041;-78
2023/10/22 09:29:53;;;;;;;4.28;0.95;;;12.20;99.90;;;;;;4990792;28;20049;-77
2023/10/22 09:32:20;;;;;;;6.57;1.10;;;12.20;99.90;;;;;;4966180;28;20058;-78
2023/10/22 09:34:46;;;;;;;6.43;0.77;;;12.20;99.90;;;;;;4969602;28;20183;-78
2023/10/22 09:37:12;;;;;;;5.50;1.27;;;12.20;99.90;;;;;;4982440;28;20071;-78
2023/10/22 09:39:40;;;;;;;3.92;0.90;;;12.20;99.90;;;;;;4983342;28;20157;-77
2023/10/22 09:42:10;;;;;;;8.07;1.15;;;12.30;99.90;;;;;;4976898;28;20058;-78
2023/10/22 09:44:38;;;;;;;4.93;1.10;;;12.30;99.90;;;;;;4968638;28;20045;-77
2023/10/22 09:47:08;;;;;;;4.65;0.88;;;12.30;99.90;;;;;;4950806;28;20091;-78
2023/10/22 09:49:35;;;;;;;5.60;1.02;;;12.30;99.90;;;;;;4963561;28;20041;-77
2023/10/22 09:52:03;;;;;;;2.15;0.52;;;12.30;99.90;;;;;;4973071;28;20058;-76
2023/10/22 09:54:39;;;;;;;5.93;1.00;;;12.30;99.90;;;;;;4972926;28;20042;-77
2023/10/22 09:57:14;;;;;;;3.90;0.80;;;12.40;99.90;;;;;;4960450;28;20091;-76
2023/10/22 09:59:46;;;;;;;6.93;0.95;;;12.40;99.90;;;;;;4983754;28;20056;-76
2023/10/22 10:02:15;;;;;;;5.85;0.88;;;12.40;99.90;;;;;;4990950;28;20053;-77
2023/10/22 10:04:43;;;;;;;6.82;0.90;;;12.40;99.90;;;;;;4958461;28;20215;-76
2023/10/22 10:07:10;;;;;;;2.97;0.70;;;12.40;99.90;;;;;;4988593;28;20089;-76
2023/10/22 10:09:41;;;;;;;5.05;0.80;;;12.60;99.90;;;;;;4989096;28;20073;-76
2023/10/22 10:12:12;;;;;;;2.83;0.70;;;12.40;99.90;;;;;;4972507;28;20413;-76
2023/10/22 10:14:44;;;;;;;3.08;0.82;;;12.40;99.90;;;;;;4969011;28;20042;-76
2023/10/22 10:17:12;;;;;;;4.43;0.80;;;12.40;99.90;;;;;;4984937;28;20401;-76
2023/10/22 10:19:47;;;;;;;4.63;0.90;;;12.40;99.90;;;;;;4984270;28;20116;-76
2023/10/22 10:22:41;;;;;;;3.63;0.80;;;12.40;99.90;;;;;;4984596;28;20466;-76
2023/10/22 10:25:30;;;;;;;5.57;1.05;;;12.50;99.90;;;;;;4985000;28;20137;-76
2023/10/22 10:27:59;;;;;;;5.15;1.02;;;12.50;99.90;;;;;;4969075;28;20189;-75
2023/10/22 10:30:25;;;;;;;3.28;0.95;;;12.50;99.90;;;;;;4963425;28;20105;-79
2023/10/22 10:32:51;;;;;;;10.13;1.63;;;12.40;99.90;;;;;;4976890;28;20096;-76
2023/10/22 10:35:18;;;;;;;4.28;1.17;;;12.40;99.90;;;;;;4960013;28;20046;-77
2023/10/22 10:38:13;;;;;;;3.35;0.88;;;12.50;99.90;;;;;;4963366;28;20134;-77
2023/10/22 10:40:43;;;;;;;3.38;0.90;;;12.60;99.90;;;;;;4938507;28;20447;-79
2023/10/22 10:43:09;;;;;;;6.50;0.82;;;12.60;99.90;;;;;;4980517;28;20119;-77
2023/10/22 10:45:35;;;;;;;2.55;0.75;;;12.60;99.90;;;;;;4978305;28;20778;-77
2023/10/22 10:48:01;;;;;;;4.53;1.05;;;12.60;99.90;;;;;;4955467;28;20042;-75
2023/10/22 10:50:27;;;;;;;2.20;0.52;;;12.60;99.90;;;;;;4974608;28;20185;-78
2023/10/22 10:52:57;;;;;;;4.22;1.10;;;12.70;99.90;;;;;;4959485;28;20049;-77
2023/10/22 10:55:22;;;;;;;3.65;0.70;;;12.70;99.90;;;;;;4976356;28;20468;-78
2023/10/22 10:57:50;;;;;;;5.35;0.75;;;12.70;99.90;;;;;;4969105;28;20053;-76
2023/10/22 11:00:28;;;;;;;4.32;0.70;;;12.70;99.90;;;;;;4953494;28;20046;-76
2023/10/22 11:03:02;;;;;;;4.72;0.80;;;12.70;99.90;;;;;;4956652;28;20053;-75
2023/10/22 11:05:39;;;;;;;2.63;0.90;;;12.70;99.90;;;;;;4952309;28;20041;-77
2023/10/22 11:08:19;;;;;;;2.78;0.80;;;12.70;99.90;;;;;;4968735;28;20222;-77
2023/10/22 11:10:45;;;;;;;4.05;0.88;;;12.80;99.90;;;;;;4980946;28;20385;-78
2023/10/22 11:13:11;;;;;;;3.33;0.77;;;12.70;99.90;;;;;;4978772;28;20687;-77
2023/10/22 11:15:38;;;;;;;2.92;0.60;;;12.70;99.90;;;;;;4974633;28;20236;-78
2023/10/22 11:18:10;;;;;;;4.45;0.65;;;12.70;99.90;;;;;;4963461;28;20163;-76
2023/10/22 11:20:37;;;;;;;4.45;0.80;;;12.70;99.90;;;;;;4971655;28;20042;-76
2023/10/22 11:23:03;;;;;;;2.53;0.60;;;12.80;99.90;;;;;;4945979;28;20820;-76
2023/10/22 11:25:31;;;;;;;3.78;0.70;;;12.80;99.90;;;;;;4964909;28;20457;-76
2023/10/22 11:27:58;;;;;;;5.97;0.60;;;12.80;99.90;;;;;;4949078;28;20406;-76
2023/10/22 11:30:34;;;;;;;1.38;0.50;;;12.90;99.90;;;;;;4975079;28;20045;-76
2023/10/22 11:33:00;;;;;;;6.28;0.65;;;12.80;99.90;;;;;;4958127;28;20053;-76
2023/10/22 11:35:30;;;;;;;1.77;0.60;;;12.90;99.90;;;;;;4955897;28;20073;-77
2023/10/22 11:37:57;;;;;;;3.55;0.50;;;12.90;99.90;;;;;;4951689;28;20224;-76
2023/10/22 11:40:26;;;;;;;1.42;0.40;;;12.90;99.90;;;;;;4958139;28;20248;-76
2023/10/22 11:42:52;;;;;;;1.65;0.50;;;12.80;99.90;;;;;;4974660;28;20046;-76
2023/10/22 11:45:19;;;;;;;2.20;0.60;;;12.70;99.90;;;;;;4957639;28;20052;-76
2023/10/22 11:47:45;;;;;;;2.63;0.68;;;12.70;99.90;;;;;;4975206;28;20093;-76
2023/10/22 11:50:13;;;;;;;3.55;0.52;;;12.60;99.90;;;;;;4960258;28;20161;-76
2023/10/22 11:52:51;;;;;;;1.13;0.43;;;12.60;99.90;;;;;;4975177;28;20042;-76
2023/10/22 11:55:18;;;;;;;3.53;0.80;;;12.60;99.90;;;;;;4965244;28;20042;-76
2023/10/22 11:57:45;;;;;;;2.15;0.45;;;12.50;99.90;;;;;;4957388;28;20131;-77
2023/10/22 12:00:12;;;;;;;3.10;0.50;;;12.60;99.90;;;;;;4974347;28;20056;-76
2023/10/22 12:02:42;;;;;;;2.50;0.50;;;12.50;99.90;;;;;;4962754;28;20120;-76
2023/10/22 12:05:09;;;;;;;1.73;0.52;;;12.50;99.90;;;;;;4957745;28;20065;-76
2023/10/22 12:07:35;;;;;;;1.48;0.60;;;12.90;99.90;;;;;;4961998;28;20050;-76
2023/10/22 12:10:01;;;;;;;2.45;0.40;;;12.50;99.90;;;;;;4980701;28;20033;-76
2023/10/22 12:12:26;;;;;;;3.22;0.60;;;12.60;99.90;;;;;;4962977;28;20096;-76
2023/10/22 12:14:52;;;;;;;3.03;0.80;;;12.80;99.90;;;;;;4960387;28;20054;-76
2023/10/22 12:17:18;;;;;;;3.35;0.60;;;12.60;99.90;;;;;;4964182;28;20108;-76
2023/10/22 12:19:44;;;;;;;1.40;0.63;;;12.60;99.90;;;;;;4961787;28;20050;-76
2023/10/22 12:22:10;;;;;;;1.65;0.38;;;12.70;99.90;;;;;;4978177;28;20279;-77
2023/10/22 12:24:36;;;;;;;2.08;0.60;;;12.70;99.90;;;;;;4951964;28;20046;-77
2023/10/22 12:27:02;;;;;;;1.83;0.45;;;12.80;99.90;;;;;;4965012;28;20080;-76
2023/10/22 12:29:28;;;;;;;1.05;0.40;;;12.90;99.90;;;;;;4966311;28;20126;-76
2023/10/22 12:31:53;;;;;;;1.65;0.40;;;12.80;99.90;;;;;;4972363;28;20136;-76
2023/10/22 12:34:20;;;;;;;1.77;0.47;;;13.10;99.90;;;;;;4967856;28;20042;-75
2023/10/22 12:36:45;;;;;;;4.07;0.60;;;12.90;99.90;;;;;;4978228;28;20049;-77
2023/10/22 12:39:11;;;;;;;2.85;0.50;;;12.90;99.90;;;;;;4980965;28;20615;-77
2023/10/22 12:41:37;;;;;;;2.78;0.50;;;12.90;99.90;;;;;;4959313;28;20796;-76
2023/10/22 12:44:04;;;;;;;2.35;0.52;;;13.00;99.90;;;;;;4964895;28;20049;-76